Time;durP1;ratioP1;P1;durP2;ratioP2;P2;SDS_P1;SDS_P2;PMS_P1;PMS_P2;Temp;Humidity;BMP_temperature;BMP_pressure;BME280_temperature;BME280_humidity;BME280_pressure;Samples;Min_cycle;Max_cycle;Signal;HPM_P1;HPM_P2
2022/04/03 00:00:20;;;;;;;2.33;1.02;;;4.60;98.80;;;;;;5044532;28;20124;-77
2022/04/03 00:02:46;;;;;;;1.65;0.80;;;4.40;99.50;;;;;;5046190;28;20037;-77
2022/04/03 00:05:12;;;;;;;2.22;1.10;;;4.30;99.90;;;;;;5048640;28;20401;-77
2022/04/03 00:07:37;;;;;;;1.15;0.63;;;4.00;99.90;;;;;;5043940;28;20112;-77
2022/04/03 00:10:04;;;;;;;2.42;1.08;;;4.00;99.90;;;;;;5056401;28;20033;-77
2022/04/03 00:12:29;;;;;;;3.65;0.73;;;3.90;99.90;;;;;;5045847;28;20033;-77
2022/04/03 00:14:55;;;;;;;2.25;1.00;;;4.00;99.90;;;;;;5045648;28;20032;-77
2022/04/03 00:17:21;;;;;;;1.90;1.10;;;4.30;98.50;;;;;;5041539;28;20029;-76
2022/04/03 00:19:47;;;;;;;2.92;1.42;;;4.60;96.90;;;;;;5048675;28;20021;-78
2022/04/03 00:22:13;;;;;;;2.42;1.08;;;4.50;98.20;;;;;;5043012;28;20479;-77
2022/04/03 00:24:39;;;;;;;2.00;1.02;;;4.40;98.80;;;;;;5044513;28;20116;-77
2022/04/03 00:27:05;;;;;;;2.00;1.13;;;3.90;99.90;;;;;;5048922;28;20029;-77
2022/04/03 00:29:30;;;;;;;1.73;0.73;;;4.00;99.20;;;;;;5045291;28;20121;-77
2022/04/03 00:31:57;;;;;;;2.42;1.02;;;4.00;98.90;;;;;;5047953;28;20052;-77
2022/04/03 00:34:24;;;;;;;1.88;1.08;;;4.00;99.40;;;;;;5041951;28;20033;-77
2022/04/03 00:36:49;;;;;;;2.03;0.88;;;4.10;98.80;;;;;;5050338;28;20059;-77
2022/04/03 00:39:15;;;;;;;2.15;0.90;;;4.00;99.60;;;;;;5047483;28;20118;-78
2022/04/03 00:41:41;;;;;;;1.98;0.88;;;3.80;99.60;;;;;;5048701;28;20068;-77
2022/04/03 00:44:07;;;;;;;1.65;0.90;;;3.80;99.90;;;;;;5039063;28;20035;-77
2022/04/03 00:46:36;;;;;;;4.30;1.20;;;3.80;98.60;;;;;;5046988;28;20036;-77
2022/04/03 00:49:02;;;;;;;2.85;1.27;;;4.00;97.90;;;;;;5043813;28;20017;-77
2022/04/03 00:51:29;;;;;;;1.65;0.90;;;3.90;99.10;;;;;;5044284;28;20116;-77
2022/04/03 00:53:55;;;;;;;2.85;1.40;;;4.00;98.30;;;;;;5048943;28;20032;-77
2022/04/03 00:56:22;;;;;;;1.85;0.90;;;4.30;97.00;;;;;;5048932;28;20145;-77
2022/04/03 00:58:48;;;;;;;1.63;0.80;;;4.20;97.10;;;;;;5048493;28;20510;-77
2022/04/03 01:01:14;;;;;;;1.88;0.80;;;3.70;98.70;;;;;;5047180;28;20090;-78
2022/04/03 01:03:40;;;;;;;4.07;1.10;;;3.70;98.50;;;;;;5047422;28;20034;-77
2022/04/03 01:06:06;;;;;;;1.98;0.82;;;3.70;98.70;;;;;;5039715;28;20033;-77
2022/04/03 01:08:32;;;;;;;2.13;1.00;;;3.70;98.50;;;;;;5052935;28;20421;-77
2022/04/03 01:10:59;;;;;;;2.28;1.00;;;3.70;98.10;;;;;;5048907;28;20033;-77
2022/04/03 01:13:25;;;;;;;1.40;0.70;;;3.80;98.20;;;;;;5044147;28;20052;-77
2022/04/03 01:15:53;;;;;;;2.20;1.10;;;3.60;99.00;;;;;;5041631;28;20061;-77
2022/04/03 01:18:18;;;;;;;2.80;1.30;;;3.50;99.10;;;;;;5050144;28;20052;-77
2022/04/03 01:20:44;;;;;;;2.13;1.10;;;3.60;98.20;;;;;;5040453;28;20076;-77
2022/04/03 01:23:10;;;;;;;1.52;0.80;;;3.90;96.90;;;;;;5047443;28;20049;-77
2022/04/03 01:25:35;;;;;;;1.90;0.90;;;3.60;98.20;;;;;;5050254;28;20057;-77
2022/04/03 01:28:01;;;;;;;2.15;1.00;;;3.70;97.20;;;;;;5048223;28;20063;-78
2022/04/03 01:30:27;;;;;;;1.73;0.88;;;3.70;96.70;;;;;;5040347;28;20399;-77
2022/04/03 01:32:52;;;;;;;1.83;1.00;;;3.70;96.80;;;;;;5046865;28;20021;-77
2022/04/03 01:35:18;;;;;;;2.17;0.95;;;4.00;95.90;;;;;;5049965;28;20044;-77
2022/04/03 01:37:44;;;;;;;2.58;0.98;;;3.60;97.80;;;;;;5048810;28;20079;-77
2022/04/03 01:40:10;;;;;;;3.40;1.23;;;3.50;97.30;;;;;;5045651;28;20029;-77
2022/04/03 01:42:37;;;;;;;1.95;0.80;;;3.10;98.30;;;;;;5043223;28;20043;-77
2022/04/03 01:45:03;;;;;;;2.33;1.20;;;3.00;98.60;;;;;;5047637;28;20044;-77
2022/04/03 01:47:29;;;;;;;2.83;1.42;;;3.30;96.60;;;;;;5046489;28;20045;-77
2022/04/03 01:49:55;;;;;;;2.33;0.98;;;3.50;96.70;;;;;;5047025;28;20041;-77
2022/04/03 01:52:21;;;;;;;1.65;1.00;;;3.50;96.30;;;;;;5048275;28;20040;-77
2022/04/03 01:54:47;;;;;;;2.17;0.95;;;3.30;97.50;;;;;;5049638;28;20036;-77
2022/04/03 01:57:12;;;;;;;3.55;1.33;;;3.10;97.60;;;;;;5036811;28;20033;-77
2022/04/03 01:59:38;;;;;;;1.80;1.10;;;2.90;99.10;;;;;;5033057;28;20087;-77
2022/04/03 02:02:04;;;;;;;3.70;1.38;;;2.70;99.20;;;;;;5035637;28;20057;-77
2022/04/03 02:04:29;;;;;;;2.22;1.10;;;2.60;99.90;;;;;;5041933;28;20479;-77
2022/04/03 02:06:57;;;;;;;1.75;0.82;;;2.70;99.50;;;;;;5047112;28;20071;-77
2022/04/03 02:09:23;;;;;;;2.50;1.35;;;2.90;98.90;;;;;;5032304;28;20026;-77
2022/04/03 02:11:49;;;;;;;2.53;1.15;;;2.90;98.50;;;;;;5048743;28;20128;-77
2022/04/03 02:14:14;;;;;;;2.50;1.00;;;2.90;98.10;;;;;;5045317;28;20559;-77
2022/04/03 02:16:40;;;;;;;1.35;0.70;;;3.00;98.40;;;;;;5049765;28;20025;-76
2022/04/03 02:19:05;;;;;;;1.23;0.70;;;2.70;98.70;;;;;;5043660;28;20399;-77
2022/04/03 02:21:31;;;;;;;2.03;1.10;;;2.80;98.20;;;;;;5048608;28;20164;-77
2022/04/03 02:23:57;;;;;;;2.35;1.23;;;3.00;97.10;;;;;;5044108;28;20037;-77
2022/04/03 02:26:22;;;;;;;2.42;0.90;;;3.10;97.10;;;;;;5050956;28;20036;-77
2022/04/03 02:28:48;;;;;;;2.45;1.10;;;3.20;97.10;;;;;;5048488;28;20026;-76
2022/04/03 02:31:14;;;;;;;1.85;0.90;;;2.80;97.90;;;;;;5049243;28;20041;-77
2022/04/03 02:33:40;;;;;;;2.63;1.20;;;2.50;98.90;;;;;;5051870;28;20390;-76
2022/04/03 02:36:06;;;;;;;2.05;0.98;;;2.70;98.10;;;;;;5046068;28;20029;-77
2022/04/03 02:38:32;;;;;;;3.33;1.40;;;2.70;97.70;;;;;;5049470;28;20131;-77
2022/04/03 02:40:57;;;;;;;1.70;0.85;;;2.50;99.10;;;;;;5051681;28;20044;-77
2022/04/03 02:43:23;;;;;;;2.22;1.15;;;2.80;97.90;;;;;;5045056;28;20414;-77
2022/04/03 02:45:49;;;;;;;2.13;1.02;;;2.90;97.20;;;;;;5041948;28;20033;-77
2022/04/03 02:48:15;;;;;;;2.38;1.00;;;2.80;98.10;;;;;;5050823;28;20024;-77
2022/04/03 02:50:42;;;;;;;2.38;1.10;;;2.70;98.10;;;;;;5050455;28;20032;-77
2022/04/03 02:53:07;;;;;;;2.35;1.05;;;2.70;97.70;;;;;;5051907;28;20037;-77
2022/04/03 02:55:33;;;;;;;2.30;1.20;;;2.90;97.50;;;;;;5051062;28;20398;-77
2022/04/03 02:57:59;;;;;;;2.15;1.05;;;3.00;96.30;;;;;;5051153;28;20635;-77
2022/04/03 03:00:25;;;;;;;1.73;0.90;;;2.90;96.70;;;;;;5040935;28;20047;-75
2022/04/03 03:02:52;;;;;;;3.10;1.15;;;2.50;98.70;;;;;;5048025;28;20531;-75
2022/04/03 03:05:18;;;;;;;2.35;0.93;;;2.50;98.00;;;;;;5038051;28;20067;-75
2022/04/03 03:07:45;;;;;;;3.83;1.17;;;2.40;98.00;;;;;;5043946;28;20628;-76
2022/04/03 03:10:18;;;;;;;2.60;1.10;;;2.40;99.00;;;;;;5044141;28;20423;-75
2022/04/03 03:12:44;;;;;;;2.70;1.67;;;2.60;98.80;;;;;;5044416;28;20032;-75
2022/04/03 03:15:11;;;;;;;2.60;1.33;;;2.50;98.80;;;;;;5041153;28;20033;-76
2022/04/03 03:17:37;;;;;;;2.53;1.38;;;2.50;98.40;;;;;;5034361;28;20387;-76
2022/04/03 03:20:05;;;;;;;2.53;1.23;;;2.70;97.00;;;;;;5041009;28;20036;-75
2022/04/03 03:22:31;;;;;;;2.58;1.30;;;2.70;97.20;;;;;;5039089;28;20535;-75
2022/04/03 03:24:57;;;;;;;4.43;1.15;;;2.60;97.70;;;;;;5041621;28;20120;-76
2022/04/03 03:27:23;;;;;;;2.85;1.60;;;2.60;97.50;;;;;;5045212;28;20044;-75
2022/04/03 03:29:48;;;;;;;2.90;1.17;;;2.60;97.40;;;;;;5046280;28;20028;-76
2022/04/03 03:32:14;;;;;;;2.15;1.08;;;2.70;96.10;;;;;;5047073;28;20451;-75
2022/04/03 03:34:40;;;;;;;2.75;1.23;;;2.60;97.70;;;;;;5042354;28;20399;-76
2022/04/03 03:37:05;;;;;;;2.22;1.10;;;2.60;97.80;;;;;;5045901;28;20037;-75
2022/04/03 03:39:31;;;;;;;2.90;1.10;;;2.90;96.40;;;;;;5037050;28;20061;-75
2022/04/03 03:41:56;;;;;;;2.08;1.30;;;2.60;98.10;;;;;;5041925;28;20464;-75
2022/04/03 03:44:23;;;;;;;2.05;1.23;;;2.50;97.30;;;;;;5033362;28;20040;-75
2022/04/03 03:46:48;;;;;;;1.45;0.90;;;2.40;97.80;;;;;;5045787;28;20040;-75
2022/04/03 03:49:15;;;;;;;1.88;1.00;;;2.40;97.40;;;;;;5041031;28;20086;-75
2022/04/03 03:51:41;;;;;;;2.33;1.17;;;2.40;97.70;;;;;;5044662;28;20078;-75
2022/04/03 03:54:06;;;;;;;2.42;1.13;;;2.40;98.10;;;;;;5037189;28;20405;-75
2022/04/03 03:56:33;;;;;;;3.25;1.50;;;2.50;97.00;;;;;;5033477;28;20040;-76
2022/04/03 03:58:59;;;;;;;2.83;1.48;;;2.40;97.60;;;;;;5023888;28;20083;-75
2022/04/03 04:01:25;;;;;;;2.42;0.90;;;2.40;97.30;;;;;;5026225;28;20155;-75
2022/04/03 04:03:51;;;;;;;2.47;1.10;;;2.50;97.20;;;;;;5022398;28;20043;-76
2022/04/03 04:06:16;;;;;;;3.78;1.35;;;2.40;97.90;;;;;;5023547;28;20064;-76
2022/04/03 04:08:42;;;;;;;2.70;1.58;;;2.50;96.60;;;;;;5025520;28;20121;-76
2022/04/03 04:11:09;;;;;;;1.90;1.00;;;2.50;97.30;;;;;;5022516;28;20952;-75
2022/04/03 04:13:35;;;;;;;2.78;1.50;;;2.40;97.40;;;;;;5024730;28;20112;-75
2022/04/03 04:16:00;;;;;;;3.35;1.25;;;2.20;98.10;;;;;;5024196;28;20041;-76
2022/04/03 04:18:26;;;;;;;2.88;1.38;;;2.20;98.40;;;;;;5020649;28;20537;-75
2022/04/03 04:20:53;;;;;;;2.55;1.23;;;2.20;97.80;;;;;;5016253;28;20025;-75
2022/04/03 04:23:19;;;;;;;2.80;1.40;;;2.30;97.60;;;;;;5032732;28;20041;-75
2022/04/03 04:25:45;;;;;;;3.30;1.45;;;2.20;97.50;;;;;;5041363;28;20037;-75
2022/04/03 04:28:11;;;;;;;4.60;1.65;;;2.60;95.60;;;;;;5041886;28;20477;-76
2022/04/03 04:30:38;;;;;;;3.28;1.38;;;2.60;96.30;;;;;;5036893;28;20036;-75
2022/04/03 04:33:04;;;;;;;7.07;1.77;;;2.30;97.20;;;;;;5039663;28;20552;-75
2022/04/03 04:35:30;;;;;;;2.50;1.17;;;2.20;97.90;;;;;;5043651;28;20044;-75
2022/04/03 04:37:55;;;;;;;2.50;1.15;;;2.00;97.80;;;;;;5035971;28;20425;-75
2022/04/03 04:40:21;;;;;;;2.15;1.15;;;2.10;96.90;;;;;;5029739;28;20041;-75
2022/04/03 04:42:47;;;;;;;4.35;1.13;;;2.00;97.90;;;;;;5033525;28;20044;-75
2022/04/03 04:45:15;;;;;;;1.98;1.05;;;2.00;97.70;;;;;;5032430;28;20044;-76
2022/04/03 04:47:41;;;;;;;2.58;1.25;;;2.10;97.20;;;;;;5031465;28;20120;-75
2022/04/03 04:50:08;;;;;;;3.75;1.48;;;2.10;97.80;;;;;;5037925;28;20238;-75
2022/04/03 04:52:35;;;;;;;2.65;1.35;;;2.40;95.80;;;;;;5040899;28;20043;-76
2022/04/03 04:55:05;;;;;;;3.42;1.40;;;2.50;96.10;;;;;;5040971;28;20131;-75
2022/04/03 04:57:32;;;;;;;2.72;1.40;;;2.60;94.30;;;;;;5040741;28;20056;-76
2022/04/03 05:00:01;;;;;;;2.22;1.17;;;2.80;95.30;;;;;;5040519;28;21821;-76
2022/04/03 05:02:27;;;;;;;3.28;1.60;;;2.50;96.30;;;;;;5016695;28;20492;-75
2022/04/03 05:04:52;;;;;;;2.65;1.38;;;2.50;95.30;;;;;;5029274;28;20044;-75
2022/04/03 05:07:18;;;;;;;3.03;1.52;;;2.40;95.70;;;;;;5024503;28;20122;-75
2022/04/03 05:09:45;;;;;;;2.28;1.33;;;2.70;94.30;;;;;;5034699;28;20159;-75
2022/04/03 05:12:12;;;;;;;2.17;1.10;;;2.50;95.60;;;;;;5040797;28;20022;-76
2022/04/03 05:14:37;;;;;;;2.47;1.23;;;2.40;95.90;;;;;;5035876;28;20033;-75
2022/04/03 05:17:05;;;;;;;3.28;1.30;;;2.50;94.90;;;;;;5042139;28;20068;-75
2022/04/03 05:19:32;;;;;;;2.83;1.05;;;2.30;96.20;;;;;;5044426;28;21064;-75
2022/04/03 05:21:58;;;;;;;2.35;1.02;;;2.30;96.70;;;;;;5040614;28;20045;-75
2022/04/03 05:24:24;;;;;;;2.22;1.20;;;2.50;95.20;;;;;;5043349;28;20025;-75
2022/04/03 05:26:50;;;;;;;1.92;0.95;;;2.50;95.80;;;;;;5033867;28;20139;-75
2022/04/03 05:29:16;;;;;;;2.80;1.33;;;2.40;96.40;;;;;;5044235;28;20032;-75
2022/04/03 05:31:42;;;;;;;2.75;1.10;;;2.50;94.90;;;;;;5045091;28;20633;-77
2022/04/03 05:34:08;;;;;;;2.78;1.55;;;2.40;95.80;;;;;;5034774;28;20105;-75
2022/04/03 05:36:34;;;;;;;2.45;1.00;;;2.50;96.20;;;;;;5023548;28;20044;-75
2022/04/03 05:39:04;;;;;;;2.03;1.02;;;2.40;95.80;;;;;;5013242;28;20051;-76
2022/04/03 05:41:30;;;;;;;2.58;1.40;;;2.50;95.90;;;;;;5022918;28;20033;-75
2022/04/03 05:43:56;;;;;;;2.50;1.30;;;2.70;94.90;;;;;;5023019;28;20621;-75
2022/04/03 05:46:22;;;;;;;2.83;1.60;;;2.60;96.00;;;;;;5022932;28;20034;-76
2022/04/03 05:48:48;;;;;;;2.20;1.23;;;2.70;95.60;;;;;;5023125;28;20056;-76
2022/04/03 05:51:13;;;;;;;2.67;1.33;;;2.60;95.70;;;;;;5029696;28;20072;-75
2022/04/03 05:53:40;;;;;;;2.85;1.25;;;2.70;95.60;;;;;;5024614;28;20037;-75
2022/04/03 05:56:05;;;;;;;1.88;1.08;;;2.90;94.70;;;;;;5027636;28;20072;-75
2022/04/03 05:58:31;;;;;;;2.53;1.08;;;2.90;95.60;;;;;;5019650;28;20037;-75
2022/04/03 06:00:57;;;;;;;1.33;0.80;;;3.20;93.50;;;;;;5026049;28;20521;-73
2022/04/03 06:03:22;;;;;;;2.20;1.10;;;2.90;94.90;;;;;;5027135;28;20644;-74
2022/04/03 06:05:48;;;;;;;3.65;1.42;;;3.10;93.80;;;;;;5025635;28;20675;-73
2022/04/03 06:08:13;;;;;;;2.67;1.35;;;3.30;94.10;;;;;;5037807;28;20045;-71
2022/04/03 06:10:39;;;;;;;2.78;1.20;;;3.50;93.10;;;;;;5035585;28;20398;-71
2022/04/03 06:13:07;;;;;;;2.67;1.27;;;3.60;91.70;;;;;;5036337;28;20033;-71
2022/04/03 06:15:36;;;;;;;5.13;1.48;;;3.70;91.90;;;;;;5042469;28;20033;-71
2022/04/03 06:18:07;;;;;;;2.08;1.20;;;3.60;93.50;;;;;;5042278;28;20206;-72
2022/04/03 06:20:33;;;;;;;2.88;1.42;;;3.60;94.30;;;;;;5044353;28;20071;-74
2022/04/03 06:22:59;;;;;;;2.33;1.17;;;3.60;93.50;;;;;;5048302;28;20093;-74
2022/04/03 06:25:25;;;;;;;2.88;1.10;;;3.80;91.40;;;;;;5045017;28;20471;-74
2022/04/03 06:27:52;;;;;;;1.92;1.13;;;3.80;91.50;;;;;;5040376;28;20109;-73
2022/04/03 06:30:17;;;;;;;7.65;1.88;;;3.90;91.30;;;;;;5036762;28;20032;-72
2022/04/03 06:32:43;;;;;;;2.97;1.35;;;3.90;92.10;;;;;;5041738;28;20032;-75
2022/04/03 06:35:09;;;;;;;2.80;1.42;;;3.90;91.80;;;;;;5028656;28;20041;-75
2022/04/03 06:37:36;;;;;;;2.75;1.30;;;4.00;91.90;;;;;;5029316;28;20044;-74
2022/04/03 06:40:02;;;;;;;2.35;1.42;;;4.00;92.20;;;;;;5030078;28;20053;-75
2022/04/03 06:42:30;;;;;;;4.25;1.50;;;3.90;92.70;;;;;;5039604;28;20033;-74
2022/04/03 06:44:57;;;;;;;2.28;1.15;;;3.80;92.40;;;;;;5033587;28;20029;-77
2022/04/03 06:47:23;;;;;;;4.22;1.80;;;3.80;91.90;;;;;;5036472;28;20047;-78
2022/04/03 06:49:49;;;;;;;2.97;1.60;;;3.80;92.40;;;;;;5035574;28;20029;-75
2022/04/03 06:52:14;;;;;;;3.60;1.70;;;3.80;92.50;;;;;;5031878;28;20037;-73
2022/04/03 06:54:40;;;;;;;3.88;1.67;;;3.80;92.00;;;;;;5036566;28;20426;-78
2022/04/03 06:57:06;;;;;;;4.18;1.55;;;3.70;92.40;;;;;;5041593;28;20087;-77
2022/04/03 06:59:32;;;;;;;2.88;1.50;;;3.80;92.10;;;;;;5040626;28;20087;-78
2022/04/03 07:01:58;;;;;;;3.88;1.73;;;5.20;91.10;;;;;;5036251;28;20474;-75
2022/04/03 07:04:24;;;;;;;4.13;1.30;;;7.10;85.70;;;;;;5029154;28;20075;-79
2022/04/03 07:06:50;;;;;;;2.90;1.35;;;8.70;82.10;;;;;;5039718;28;20024;-75
2022/04/03 07:09:15;;;;;;;3.25;1.60;;;9.60;79.20;;;;;;5031574;28;20112;-75
2022/04/03 07:11:41;;;;;;;2.83;1.33;;;10.60;76.70;;;;;;5035854;28;20025;-74
2022/04/03 07:14:07;;;;;;;4.20;1.30;;;11.20;73.20;;;;;;5027530;28;20506;-75
2022/04/03 07:16:33;;;;;;;3.10;1.20;;;11.50;79.60;;;;;;5034965;28;20619;-75
2022/04/03 07:18:58;;;;;;;2.95;1.65;;;12.10;72.50;;;;;;5043461;28;20060;-75
2022/04/03 07:21:24;;;;;;;2.42;1.30;;;11.50;69.60;;;;;;5040504;28;20446;-75
2022/04/03 07:23:49;;;;;;;2.95;1.30;;;9.20;72.30;;;;;;5045932;28;20052;-76
2022/04/03 07:26:15;;;;;;;3.45;1.33;;;6.90;75.90;;;;;;5040278;28;20029;-76
2022/04/03 07:28:41;;;;;;;3.28;1.50;;;5.70;80.00;;;;;;5047162;28;20060;-76
2022/04/03 07:31:08;;;;;;;2.72;1.27;;;5.20;79.60;;;;;;5037580;28;20018;-78
2022/04/03 07:33:34;;;;;;;4.60;2.60;;;5.00;82.30;;;;;;5046499;28;20029;-76
2022/04/03 07:36:01;;;;;;;2.80;1.45;;;5.10;83.80;;;;;;5044217;28;20380;-78
2022/04/03 07:38:27;;;;;;;2.72;1.52;;;4.90;82.40;;;;;;5046254;28;20550;-77
2022/04/03 07:40:53;;;;;;;2.65;1.10;;;4.90;83.20;;;;;;5047654;28;20025;-78
2022/04/03 07:43:18;;;;;;;3.20;1.50;;;4.90;80.90;;;;;;5038664;28;20048;-78
2022/04/03 07:45:45;;;;;;;2.00;1.20;;;4.80;81.30;;;;;;5042262;28;20045;-78
2022/04/03 07:48:11;;;;;;;2.95;1.55;;;4.90;83.30;;;;;;5044292;28;20116;-78
2022/04/03 07:50:37;;;;;;;3.20;1.70;;;4.90;83.40;;;;;;5043888;28;20137;-77
2022/04/03 07:53:04;;;;;;;2.85;1.55;;;4.90;84.50;;;;;;5040941;28;20029;-77
2022/04/03 07:55:30;;;;;;;3.17;1.50;;;4.90;83.70;;;;;;5043348;28;20033;-78
2022/04/03 07:57:56;;;;;;;3.58;1.77;;;5.00;83.80;;;;;;5046048;28;20087;-78
2022/04/03 08:00:21;;;;;;;2.88;1.45;;;5.00;84.10;;;;;;5042670;28;20626;-78
2022/04/03 08:02:47;;;;;;;2.65;1.42;;;5.00;83.40;;;;;;5033944;28;21467;-78
2022/04/03 08:05:14;;;;;;;3.53;1.48;;;5.10;85.30;;;;;;5045265;28;20078;-78
2022/04/03 08:07:45;;;;;;;3.10;1.63;;;5.10;84.20;;;;;;5042963;28;20040;-78
2022/04/03 08:10:13;;;;;;;3.65;1.75;;;5.10;85.40;;;;;;5040978;28;20053;-78
2022/04/03 08:12:41;;;;;;;3.47;1.52;;;5.10;86.20;;;;;;5041860;28;20132;-78
2022/04/03 08:15:08;;;;;;;2.85;1.45;;;5.10;84.90;;;;;;5036539;28;20110;-78
2022/04/03 08:17:34;;;;;;;5.90;1.40;;;5.40;84.00;;;;;;5042876;28;20124;-78
2022/04/03 08:20:01;;;;;;;2.30;1.60;;;5.40;85.90;;;;;;5037972;28;20064;-78
2022/04/03 08:22:27;;;;;;;3.35;1.60;;;5.40;86.60;;;;;;5041852;28;20090;-77
2022/04/03 08:24:53;;;;;;;3.28;1.65;;;5.50;85.70;;;;;;5041850;28;20025;-77
2022/04/03 08:27:19;;;;;;;3.70;2.00;;;5.50;85.70;;;;;;5044365;28;20487;-77
2022/04/03 08:29:45;;;;;;;5.10;1.60;;;5.40;85.00;;;;;;5040334;28;20067;-76
2022/04/03 08:32:12;;;;;;;4.35;2.58;;;5.40;86.50;;;;;;5042654;28;20082;-77
2022/04/03 08:34:39;;;;;;;2.75;1.60;;;5.50;83.80;;;;;;5036660;28;20102;-77
2022/04/03 08:37:05;;;;;;;2.97;1.63;;;5.60;87.20;;;;;;5042451;28;20449;-77
2022/04/03 08:39:31;;;;;;;3.38;1.60;;;5.70;87.50;;;;;;5041876;28;20518;-76
2022/04/03 08:41:56;;;;;;;4.80;1.85;;;5.80;85.80;;;;;;5039878;28;20030;-76
2022/04/03 08:44:22;;;;;;;2.75;1.55;;;5.80;85.00;;;;;;5043510;28;20351;-77
2022/04/03 08:46:49;;;;;;;3.97;1.80;;;5.80;85.70;;;;;;5030613;28;20056;-77
2022/04/03 08:49:19;;;;;;;3.53;1.80;;;6.00;84.80;;;;;;5041469;28;20108;-77
2022/04/03 08:51:46;;;;;;;3.35;1.48;;;6.10;85.10;;;;;;5039995;28;20025;-78
2022/04/03 08:54:14;;;;;;;3.00;1.60;;;6.00;81.30;;;;;;5053543;28;20037;-75
2022/04/03 08:56:42;;;;;;;3.55;1.85;;;6.10;85.60;;;;;;5046503;28;20601;-76
2022/04/03 08:59:08;;;;;;;3.10;1.75;;;6.20;86.20;;;;;;5044268;28;20037;-77
2022/04/03 09:01:34;;;;;;;3.00;1.50;;;6.20;84.50;;;;;;5021537;28;20052;-77
2022/04/03 09:04:00;;;;;;;2.88;1.50;;;6.70;83.20;;;;;;5025486;28;20767;-79
2022/04/03 09:06:27;;;;;;;3.65;1.67;;;10.20;80.60;;;;;;5037456;28;20033;-78
2022/04/03 09:08:52;;;;;;;3.03;1.50;;;11.70;74.30;;;;;;5033500;28;20035;-78
2022/04/03 09:11:19;;;;;;;3.30;1.52;;;12.30;70.80;;;;;;5039416;28;20037;-78
2022/04/03 09:13:45;;;;;;;2.72;1.40;;;12.90;70.50;;;;;;5032974;28;20036;-78
2022/04/03 09:16:11;;;;;;;3.30;1.50;;;12.20;70.20;;;;;;5032686;28;20105;-78
2022/04/03 09:18:48;;;;;;;3.20;1.58;;;12.90;71.70;;;;;;5014602;28;20037;-78
2022/04/03 09:21:26;;;;;;;3.33;1.48;;;13.40;68.90;;;;;;5014157;28;20112;-77
2022/04/03 09:23:59;;;;;;;2.85;1.50;;;13.20;69.90;;;;;;5020169;28;20376;-78
2022/04/03 09:26:25;;;;;;;3.17;1.50;;;12.90;68.10;;;;;;5013228;28;20025;-78
2022/04/03 09:29:14;;;;;;;2.92;1.65;;;13.60;69.20;;;;;;5030368;28;20039;-77
2022/04/03 09:31:41;;;;;;;3.47;1.95;;;14.30;68.70;;;;;;5033884;28;20063;-77
2022/04/03 09:34:14;;;;;;;2.67;1.45;;;15.60;68.40;;;;;;5038602;28;20705;-78
2022/04/03 09:36:40;;;;;;;3.63;1.60;;;14.20;65.90;;;;;;5042269;28;20024;-77
2022/04/03 09:39:12;;;;;;;4.13;1.42;;;15.20;65.00;;;;;;5045954;28;20029;-77
2022/04/03 09:41:56;;;;;;;4.18;1.70;;;15.30;66.20;;;;;;5036013;28;20136;-78
2022/04/03 09:44:29;;;;;;;3.88;1.83;;;14.30;65.60;;;;;;5033277;28;20033;-78
2022/04/03 09:47:30;;;;;;;3.38;1.50;;;12.80;67.80;;;;;;5034609;28;20112;-78
2022/04/03 09:50:04;;;;;;;4.93;1.70;;;12.20;67.50;;;;;;5033994;28;20136;-77
2022/04/03 09:52:46;;;;;;;3.53;1.60;;;11.30;68.30;;;;;;5047252;28;20033;-77
2022/04/03 09:55:17;;;;;;;2.42;1.30;;;9.70;68.10;;;;;;5042699;28;20103;-77
2022/04/03 09:58:00;;;;;;;2.70;1.40;;;8.90;71.50;;;;;;5032527;28;20041;-78
2022/04/03 10:00:44;;;;;;;3.47;1.65;;;8.80;68.80;;;;;;5039575;28;20936;-77
2022/04/03 10:03:11;;;;;;;2.83;1.55;;;8.50;71.00;;;;;;5035499;28;20183;-78
2022/04/03 10:05:37;;;;;;;3.83;1.80;;;8.50;69.00;;;;;;5038017;28;20842;-78
2022/04/03 10:08:05;;;;;;;3.92;1.80;;;8.60;70.90;;;;;;5046344;28;20029;-78
2022/04/03 10:10:33;;;;;;;3.33;1.77;;;8.70;73.70;;;;;;5034003;28;20032;-78
2022/04/03 10:12:59;;;;;;;3.00;1.55;;;8.50;70.00;;;;;;5038121;28;20044;-77
2022/04/03 10:15:27;;;;;;;3.00;1.48;;;8.60;72.10;;;;;;5037944;28;20035;-77
2022/04/03 10:17:53;;;;;;;3.10;1.70;;;8.70;71.60;;;;;;5034901;28;20029;-78
2022/04/03 10:20:19;;;;;;;3.95;1.58;;;8.70;72.60;;;;;;5045223;28;20036;-77
2022/04/03 10:22:55;;;;;;;2.90;1.58;;;8.60;73.00;;;;;;5039061;28;20037;-79
2022/04/03 10:25:27;;;;;;;3.63;1.65;;;8.80;73.50;;;;;;5033419;28;20026;-77
2022/04/03 10:27:57;;;;;;;3.90;2.08;;;8.90;72.20;;;;;;5040442;28;20032;-78
2022/04/03 10:30:42;;;;;;;3.17;1.60;;;9.00;74.20;;;;;;5047431;28;20028;-77
2022/04/03 10:33:20;;;;;;;2.92;1.77;;;9.00;73.00;;;;;;5031010;28;20125;-77
2022/04/03 10:36:17;;;;;;;4.35;1.90;;;9.00;70.00;;;;;;5041806;28;20040;-79
2022/04/03 10:39:00;;;;;;;3.83;1.90;;;9.00;70.60;;;;;;5040354;28;20025;-79
2022/04/03 10:41:35;;;;;;;3.28;1.42;;;10.00;71.70;;;;;;5040775;28;20723;-78
2022/04/03 10:44:22;;;;;;;2.65;1.40;;;10.40;69.60;;;;;;5040461;28;20181;-78
2022/04/03 10:47:05;;;;;;;3.08;1.42;;;10.30;69.10;;;;;;5040963;28;20021;-78
2022/04/03 10:49:46;;;;;;;2.58;1.35;;;10.50;70.50;;;;;;5039516;28;20038;-77
2022/04/03 10:52:55;;;;;;;2.55;1.27;;;10.50;71.50;;;;;;5041673;28;20083;-78
2022/04/03 10:55:22;;;;;;;5.57;1.85;;;10.30;69.70;;;;;;5012757;28;20044;-76
2022/04/03 10:57:50;;;;;;;2.85;1.33;;;10.40;69.50;;;;;;5032807;28;20041;-78
2022/04/03 11:00:16;;;;;;;2.78;1.38;;;10.10;64.30;;;;;;5030832;28;20463;-78
2022/04/03 11:02:43;;;;;;;2.33;1.40;;;9.50;64.30;;;;;;5011063;28;20036;-78
2022/04/03 11:05:21;;;;;;;2.50;1.08;;;9.80;66.50;;;;;;5020267;28;20033;-79
2022/04/03 11:08:07;;;;;;;3.85;1.30;;;9.80;64.90;;;;;;5027765;28;20032;-78
2022/04/03 11:11:07;;;;;;;4.65;1.52;;;10.30;67.70;;;;;;5039665;28;20060;-78
2022/04/03 11:13:38;;;;;;;2.95;1.73;;;10.50;66.80;;;;;;5016814;28;20764;-78
2022/04/03 11:16:08;;;;;;;2.25;1.02;;;10.50;67.60;;;;;;5028303;28;20037;-75
2022/04/03 11:18:47;;;;;;;3.05;1.40;;;10.40;65.20;;;;;;5026419;28;20029;-77
2022/04/03 11:21:36;;;;;;;3.00;1.15;;;10.20;64.90;;;;;;5032854;28;20045;-77
2022/04/03 11:24:12;;;;;;;4.05;1.52;;;10.40;65.00;;;;;;5021835;28;20141;-77
2022/04/03 11:26:40;;;;;;;2.45;1.20;;;10.60;68.10;;;;;;5015753;28;20037;-77
2022/04/03 11:29:09;;;;;;;2.15;1.30;;;10.60;67.20;;;;;;5022178;28;20076;-79
2022/04/03 11:31:36;;;;;;;2.05;1.02;;;10.80;66.10;;;;;;5027678;28;20160;-76
2022/04/03 11:34:02;;;;;;;3.75;1.92;;;10.80;64.90;;;;;;5032761;28;20141;-76
2022/04/03 11:36:31;;;;;;;3.88;1.70;;;10.90;64.40;;;;;;5019794;28;20029;-80
2022/04/03 11:38:58;;;;;;;2.33;1.13;;;11.20;67.00;;;;;;5040551;28;20458;-78
2022/04/03 11:41:31;;;;;;;2.35;1.10;;;11.00;62.90;;;;;;5037446;28;20039;-84
2022/04/03 11:44:07;;;;;;;4.00;2.05;;;10.80;62.70;;;;;;5041227;28;20072;-79
2022/04/03 11:46:37;;;;;;;2.13;1.30;;;10.80;64.40;;;;;;5037676;28;20442;-78
2022/04/03 11:49:21;;;;;;;2.10;1.00;;;11.10;65.40;;;;;;5038264;28;20037;-76
2022/04/03 11:51:52;;;;;;;2.50;1.20;;;11.60;66.50;;;;;;5038780;28;20139;-79
2022/04/03 11:54:18;;;;;;;2.28;1.45;;;11.40;65.80;;;;;;5039925;28;20028;-77
2022/04/03 11:56:43;;;;;;;2.92;0.95;;;11.30;68.60;;;;;;5031166;28;20086;-76
2022/04/03 11:59:09;;;;;;;18.20;1.92;;;11.30;70.00;;;;;;5039248;28;20024;-78
2022/04/03 12:01:49;;;;;;;3.72;1.45;;;11.50;65.30;;;;;;5037001;28;20455;-77
2022/04/03 12:04:15;;;;;;;3.15;1.27;;;10.80;61.10;;;;;;5044334;28;20125;-76
2022/04/03 12:06:43;;;;;;;3.40;1.75;;;11.10;62.00;;;;;;5025062;28;20037;-76
2022/04/03 12:09:11;;;;;;;4.40;2.33;;;11.50;62.50;;;;;;5025371;28;20060;-77
2022/04/03 12:11:42;;;;;;;3.10;1.58;;;11.70;60.70;;;;;;5029916;28;20135;-79
2022/04/03 12:14:09;;;;;;;2.47;1.23;;;11.70;62.30;;;;;;5042918;28;20082;-80
2022/04/03 12:16:38;;;;;;;3.45;1.17;;;11.80;60.60;;;;;;5034400;28;20112;-79
2022/04/03 12:19:14;;;;;;;4.78;1.25;;;11.50;62.40;;;;;;5035578;28;20628;-76
2022/04/03 12:21:49;;;;;;;5.07;1.20;;;11.60;62.90;;;;;;5034169;28;20020;-79
2022/04/03 12:24:28;;;;;;;4.75;1.38;;;11.80;63.10;;;;;;5042155;28;20037;-81
2022/04/03 12:26:59;;;;;;;6.82;3.80;;;11.80;62.40;;;;;;5038897;28;20416;-79
2022/04/03 12:29:30;;;;;;;4.55;2.30;;;11.80;61.80;;;;;;5035945;28;20024;-81
2022/04/03 12:32:07;;;;;;;2.47;1.60;;;12.10;61.00;;;;;;5037071;28;20029;-80
2022/04/03 12:34:36;;;;;;;3.08;1.48;;;12.00;62.90;;;;;;5039371;28;20108;-79
2022/04/03 12:37:03;;;;;;;3.83;2.53;;;11.60;60.30;;;;;;5040982;28;20033;-78
2022/04/03 12:39:36;;;;;;;3.58;1.75;;;11.70;63.80;;;;;;5041705;28;20494;-81
2022/04/03 12:42:11;;;;;;;2.15;1.20;;;11.90;65.90;;;;;;5036058;28;20040;-77
2022/04/03 12:44:44;;;;;;;3.33;1.10;;;11.80;64.30;;;;;;5036230;28;20488;-80
2022/04/03 12:47:33;;;;;;;2.75;1.50;;;11.90;66.40;;;;;;5038273;28;20033;-79
2022/04/03 12:50:11;;;;;;;3.35;1.00;;;11.10;63.50;;;;;;5034880;28;20119;-77
2022/04/03 12:52:42;;;;;;;2.70;1.48;;;10.70;63.70;;;;;;5028195;28;20064;-74
2022/04/03 12:55:32;;;;;;;2.63;1.60;;;10.90;68.30;;;;;;5039672;28;20036;-80
2022/04/03 13:00:55;;;;;;;3.08;1.52;;;11.20;65.30;;;;;;5038629;28;20068;-80
2022/04/03 13:03:24;;;;;;;3.80;2.03;;;11.20;64.40;;;;;;5037321;28;20049;-80